createdAt,value
2022-12-23T00:01:34.241Z,84.53
2022-12-23T00:04:00.866Z,84.35
2022-12-23T00:06:27.767Z,84.65
2022-12-23T00:09:00.434Z,84.66
2022-12-23T00:11:28.879Z,84.60
2022-12-23T00:14:20.418Z,84.63
2022-12-23T00:16:48.056Z,84.22
2022-12-23T00:19:14.647Z,84.30
2022-12-23T00:21:41.226Z,84.21
2022-12-23T00:24:07.886Z,84.65
2022-12-23T00:26:34.534Z,84.71
2022-12-23T00:29:01.080Z,84.66
2022-12-23T00:31:27.713Z,84.96
2022-12-23T00:33:54.503Z,84.76
2022-12-23T00:36:27.755Z,84.76
2022-12-23T00:39:14.176Z,85.14
2022-12-23T00:41:59.412Z,85.44
2022-12-23T00:44:25.954Z,85.40
2022-12-23T00:46:52.542Z,85.26
2022-12-23T00:49:38.935Z,85.34
2022-12-23T00:52:07.634Z,85.31
2022-12-23T00:54:34.416Z,85.45
2022-12-23T00:57:01.668Z,85.46
2022-12-23T00:59:28.792Z,85.53
2022-12-23T01:02:14.083Z,85.37
2022-12-23T01:04:59.493Z,85.78
2022-12-23T01:07:26.091Z,85.32
2022-12-23T01:09:52.665Z,85.69
2022-12-23T01:12:19.293Z,85.46
2022-12-23T01:14:46.001Z,85.43
2022-12-23T01:17:12.611Z,85.80
2022-12-23T01:19:39.533Z,85.57
2022-12-23T01:22:06.105Z,86.00
2022-12-23T01:24:33.203Z,85.99
2022-12-23T01:27:00.112Z,85.84
2022-12-23T01:29:28.911Z,85.75
2022-12-23T01:31:55.734Z,86.14
2022-12-23T01:34:22.605Z,86.04
2022-12-23T01:36:49.205Z,86.22
2022-12-23T01:39:15.871Z,86.31
2022-12-23T01:42:01.129Z,86.50
2022-12-23T01:44:46.172Z,86.55
2022-12-23T01:47:17.180Z,86.34
2022-12-23T01:49:43.961Z,86.62
2022-12-23T01:52:12.228Z,86.86
2022-12-23T01:54:39.822Z,86.58
2022-12-23T01:57:06.592Z,86.86
2022-12-23T01:59:52.367Z,87.24
2022-12-23T02:02:38.211Z,86.83
2022-12-23T02:05:05.198Z,86.70
2022-12-23T02:07:50.824Z,86.88
2022-12-23T02:10:17.512Z,87.19
2022-12-23T02:13:12.015Z,87.14
2022-12-23T02:16:09.442Z,86.78
2022-12-23T02:18:54.465Z,87.11
2022-12-23T02:21:48.245Z,87.45
2022-12-23T02:24:49.100Z,87.58
2022-12-23T02:27:24.165Z,87.33
2022-12-23T02:30:06.068Z,87.19
2022-12-23T02:33:29.757Z,87.49
2022-12-23T02:36:06.867Z,87.13
2022-12-23T02:38:56.681Z,87.24
2022-12-23T02:41:33.933Z,87.46
2022-12-23T02:44:08.237Z,87.21
2022-12-23T02:46:41.818Z,87.34
2022-12-23T02:49:13.407Z,87.06
2022-12-23T02:51:46.993Z,86.60
2022-12-23T02:54:20.889Z,86.90
2022-12-23T02:56:51.236Z,86.31
2022-12-23T02:59:24.150Z,86.40
2022-12-23T03:01:52.492Z,86.58
2022-12-23T03:04:19.292Z,86.73
2022-12-23T03:06:49.997Z,86.60
2022-12-23T03:09:33.121Z,86.43
2022-12-23T03:12:10.232Z,86.46
2022-12-23T03:14:50.556Z,86.18
2022-12-23T03:17:43.160Z,86.37
2022-12-23T03:20:38.826Z,86.27
2022-12-23T03:23:19.132Z,85.78
2022-12-23T03:25:57.647Z,85.75
2022-12-23T03:28:36.064Z,86.38
2022-12-23T03:31:07.822Z,86.12
2022-12-23T03:33:39.653Z,85.98
2022-12-23T03:36:13.501Z,86.02
2022-12-23T03:38:43.390Z,85.97
2022-12-23T03:41:16.315Z,85.70
2022-12-23T03:43:51.239Z,85.74
2022-12-23T03:46:29.173Z,85.33
2022-12-23T03:49:01.490Z,85.65
2022-12-23T03:51:39.647Z,85.36
2022-12-23T03:54:15.197Z,85.12
2022-12-23T03:56:49.526Z,85.31
2022-12-23T03:59:21.833Z,85.52
2022-12-23T04:02:06.966Z,85.22
2022-12-23T04:05:04.360Z,85.52
2022-12-23T04:07:37.112Z,85.55
2022-12-23T04:10:04.578Z,85.30
2022-12-23T04:12:31.891Z,85.29
2022-12-23T04:14:58.541Z,85.34
2022-12-23T04:17:25.125Z,85.50
2022-12-23T04:19:52.987Z,85.78
2022-12-23T04:22:19.564Z,85.38
2022-12-23T04:24:46.056Z,85.84
2022-12-23T04:27:15.049Z,86.31
2022-12-23T04:29:42.865Z,86.53
2022-12-23T04:32:09.670Z,86.11
2022-12-23T04:34:36.488Z,86.39
2022-12-23T04:37:03.073Z,86.75
2022-12-23T04:39:29.634Z,87.09
2022-12-23T04:41:56.313Z,86.66
2022-12-23T04:44:22.908Z,86.64
2022-12-23T04:46:49.555Z,86.52
2022-12-23T04:49:16.217Z,86.31
2022-12-23T04:51:42.716Z,85.91
2022-12-23T04:54:09.316Z,86.00
2022-12-23T04:56:35.940Z,85.73
2022-12-23T04:59:04.389Z,85.69
2022-12-23T05:01:31.192Z,85.45
2022-12-23T05:03:58.026Z,85.47
2022-12-23T05:06:24.550Z,84.72
2022-12-23T05:08:51.057Z,84.83
2022-12-23T05:11:17.625Z,84.50
2022-12-23T05:13:44.326Z,84.40
2022-12-23T05:16:10.901Z,84.25
2022-12-23T05:18:37.479Z,85.12
2022-12-23T05:21:04.396Z,84.78
2022-12-23T05:23:30.996Z,84.65
2022-12-23T05:25:57.575Z,84.84
2022-12-23T05:28:24.291Z,84.40
2022-12-23T05:31:01.124Z,85.00
2022-12-23T05:33:28.492Z,84.65
2022-12-23T05:35:55.534Z,84.77
2022-12-23T05:38:22.340Z,84.58
2022-12-23T05:40:49.181Z,84.97
2022-12-23T05:43:16.463Z,84.82
2022-12-23T05:45:43.129Z,85.16
2022-12-23T05:48:10.238Z,85.46
2022-12-23T05:50:37.751Z,85.57
2022-12-23T05:53:04.857Z,85.36
2022-12-23T05:55:31.754Z,86.42
2022-12-23T05:57:58.589Z,86.16
2022-12-23T06:00:25.990Z,86.66
2022-12-23T06:02:54.131Z,86.40
2022-12-23T06:05:21.272Z,86.21
2022-12-23T06:07:51.021Z,86.12
2022-12-23T06:10:17.771Z,86.35
2022-12-23T06:12:44.349Z,85.58
2022-12-23T06:15:11.591Z,85.64
2022-12-23T06:17:38.314Z,85.78
2022-12-23T06:20:05.680Z,85.81
2022-12-23T06:22:32.249Z,85.54
2022-12-23T06:24:58.834Z,85.81
2022-12-23T06:27:25.365Z,85.83
2022-12-23T06:29:51.942Z,85.38
2022-12-23T06:32:18.709Z,85.37
2022-12-23T06:34:45.399Z,85.82
2022-12-23T06:37:11.986Z,85.60
2022-12-23T06:39:38.539Z,85.46
2022-12-23T06:42:05.170Z,85.40
2022-12-23T06:44:31.777Z,85.34
2022-12-23T06:46:58.390Z,85.39
2022-12-23T06:49:24.971Z,85.05
2022-12-23T06:51:51.499Z,85.28
2022-12-23T06:54:18.094Z,85.15
2022-12-23T06:56:44.797Z,84.96
2022-12-23T06:59:11.298Z,84.85
2022-12-23T07:01:38.054Z,84.97
2022-12-23T07:04:04.810Z,84.85
2022-12-23T07:06:31.408Z,85.07
2022-12-23T07:08:57.999Z,84.99
2022-12-23T07:11:24.515Z,85.23
2022-12-23T07:13:51.030Z,85.22
2022-12-23T07:16:17.666Z,85.24
2022-12-23T07:18:44.534Z,85.64
2022-12-23T07:21:21.393Z,85.71
2022-12-23T07:23:53.213Z,85.53
2022-12-23T07:26:19.766Z,85.99
2022-12-23T07:28:48.238Z,86.19
2022-12-23T07:31:15.349Z,86.20
2022-12-23T07:33:42.161Z,85.99
2022-12-23T07:36:09.156Z,85.83
2022-12-23T07:38:35.746Z,86.01
2022-12-23T07:41:02.270Z,86.38
2022-12-23T07:43:28.956Z,86.89
2022-12-23T07:45:59.996Z,86.51
2022-12-23T07:48:27.717Z,87.01
2022-12-23T07:51:03.439Z,86.57
2022-12-23T07:53:30.343Z,86.32
2022-12-23T07:55:57.166Z,86.19
2022-12-23T07:58:24.160Z,86.25
2022-12-23T08:00:50.759Z,85.86
2022-12-23T08:03:17.902Z,85.86
2022-12-23T08:05:44.598Z,85.31
2022-12-23T08:08:11.180Z,85.20
2022-12-23T08:10:41.491Z,84.54
2022-12-23T08:13:11.269Z,84.24
2022-12-23T08:15:37.827Z,85.17
2022-12-23T08:18:04.649Z,84.57
2022-12-23T08:20:31.138Z,84.45
2022-12-23T08:22:57.660Z,84.34
2022-12-23T08:25:24.391Z,84.32
2022-12-23T08:27:51.460Z,84.25
2022-12-23T08:30:19.459Z,83.39
2022-12-23T08:32:46.608Z,84.16
2022-12-23T08:35:13.133Z,84.22
2022-12-23T08:37:39.666Z,84.35
2022-12-23T08:40:07.127Z,84.26
2022-12-23T08:42:33.666Z,83.99
2022-12-23T08:45:01.049Z,83.28
2022-12-23T08:47:27.628Z,82.72
2022-12-23T08:49:54.126Z,82.82
2022-12-23T08:52:20.761Z,83.02
2022-12-23T08:54:47.505Z,82.44
2022-12-23T08:57:16.566Z,82.18
2022-12-23T08:59:43.354Z,82.21
2022-12-23T09:02:11.935Z,82.32
2022-12-23T09:04:38.700Z,81.57
2022-12-23T09:07:06.035Z,81.73
2022-12-23T09:09:32.722Z,82.62
2022-12-23T09:11:59.437Z,81.91
2022-12-23T09:14:26.075Z,82.01
2022-12-23T09:16:52.702Z,81.74
2022-12-23T09:19:19.404Z,81.40
2022-12-23T09:21:45.994Z,81.09
2022-12-23T09:24:12.701Z,81.03
2022-12-23T09:26:39.321Z,81.00
2022-12-23T09:29:06.072Z,80.30
2022-12-23T09:31:37.395Z,80.01
2022-12-23T09:34:05.274Z,80.50
2022-12-23T09:36:32.351Z,79.72
2022-12-23T09:38:59.372Z,80.01
2022-12-23T09:41:54.912Z,79.82
2022-12-23T09:44:56.936Z,80.09
2022-12-23T09:47:26.733Z,79.97
2022-12-23T09:49:59.221Z,80.13
2022-12-23T09:52:36.503Z,80.17
2022-12-23T09:55:03.471Z,80.54
2022-12-23T09:57:40.722Z,80.59
2022-12-23T10:00:15.505Z,81.02
2022-12-23T10:02:55.030Z,80.95
2022-12-23T10:05:26.726Z,81.17
2022-12-23T10:08:03.841Z,81.32
2022-12-23T10:10:36.892Z,81.72
2022-12-23T10:13:06.403Z,81.47
2022-12-23T10:15:47.878Z,81.16
2022-12-23T10:18:27.787Z,81.44
2022-12-23T10:21:01.668Z,81.31
2022-12-23T10:23:39.998Z,80.95
2022-12-23T10:26:39.940Z,80.83
2022-12-23T10:29:19.824Z,80.86
2022-12-23T10:31:56.804Z,80.81
2022-12-23T10:34:43.667Z,80.83
2022-12-23T10:37:34.158Z,80.61
2022-12-23T10:40:27.610Z,80.54
2022-12-23T10:42:54.177Z,80.30
2022-12-23T10:45:26.424Z,80.27
2022-12-23T10:48:13.543Z,80.70
2022-12-23T10:51:03.590Z,80.78
2022-12-23T10:53:50.620Z,80.86
2022-12-23T10:56:18.654Z,80.55
2022-12-23T10:58:50.016Z,80.93
2022-12-23T11:01:26.144Z,81.09
2022-12-23T11:04:01.733Z,81.45
2022-12-23T11:06:36.622Z,81.07
2022-12-23T11:09:05.202Z,81.42
2022-12-23T11:12:01.283Z,81.90
2022-12-23T11:14:43.400Z,81.43
2022-12-23T11:17:19.086Z,82.09
2022-12-23T11:19:45.668Z,82.60
2022-12-23T11:22:25.426Z,82.12
2022-12-23T11:24:52.033Z,82.69
2022-12-23T11:27:19.720Z,82.41
2022-12-23T11:29:55.463Z,82.55
2022-12-23T11:32:26.275Z,82.71
2022-12-23T11:34:54.160Z,82.73
2022-12-23T11:37:46.285Z,82.67
2022-12-23T11:40:24.228Z,82.94
2022-12-23T11:42:57.220Z,83.20
2022-12-23T11:45:27.101Z,82.90
2022-12-23T11:47:54.261Z,83.41
2022-12-23T11:50:21.469Z,83.13
2022-12-23T11:52:57.330Z,83.43
2022-12-23T11:55:29.920Z,83.52
2022-12-23T11:57:56.810Z,83.70
2022-12-23T12:00:28.877Z,83.83
2022-12-23T12:03:04.619Z,83.05
2022-12-23T12:05:37.001Z,83.49
2022-12-23T12:08:16.206Z,83.75
2022-12-23T12:10:43.129Z,83.47
2022-12-23T12:13:29.520Z,84.06
2022-12-23T12:16:21.560Z,83.79
2022-12-23T12:18:55.119Z,83.85
2022-12-23T12:21:26.302Z,83.90
2022-12-23T12:24:20.571Z,84.34
2022-12-23T12:26:52.476Z,84.13
2022-12-23T12:29:39.884Z,84.57
2022-12-23T12:32:16.758Z,84.70
2022-12-23T12:34:56.615Z,84.96
2022-12-23T12:37:31.969Z,84.80
2022-12-23T12:40:23.496Z,84.67
2022-12-23T12:42:57.455Z,84.72
2022-12-23T12:45:32.338Z,84.96
2022-12-23T12:48:23.982Z,84.81
2022-12-23T12:51:05.828Z,84.87
2022-12-23T12:53:33.725Z,84.88
2022-12-23T12:56:18.989Z,85.24
2022-12-23T12:58:47.510Z,85.14
2022-12-23T13:01:25.547Z,85.10
2022-12-23T13:04:13.043Z,85.36
2022-12-23T13:06:56.555Z,85.26
2022-12-23T13:09:55.308Z,84.99
2022-12-23T13:12:56.895Z,85.50
2022-12-23T13:15:35.610Z,85.45
2022-12-23T13:18:28.901Z,85.65
2022-12-23T13:21:22.090Z,85.52
2022-12-23T13:24:10.002Z,85.02
2022-12-23T13:27:02.865Z,85.39
2022-12-23T13:29:49.445Z,85.96
2022-12-23T13:32:45.849Z,86.20
2022-12-23T13:35:24.179Z,85.97
2022-12-23T13:38:11.800Z,85.75
2022-12-23T13:40:45.251Z,85.58
2022-12-23T13:43:18.095Z,85.69
2022-12-23T13:45:46.928Z,85.43
2022-12-23T13:48:45.129Z,85.53
2022-12-23T13:51:24.027Z,85.40
2022-12-23T13:54:21.970Z,85.10
2022-12-23T13:57:15.522Z,85.04
2022-12-23T13:59:58.413Z,85.37
2022-12-23T14:02:37.174Z,85.12
2022-12-23T14:05:09.306Z,85.22
2022-12-23T14:07:38.488Z,85.39
2022-12-23T14:10:20.126Z,85.10
2022-12-23T14:12:47.615Z,85.10
2022-12-23T14:15:31.808Z,85.22
2022-12-23T14:18:36.786Z,85.11
2022-12-23T14:21:19.097Z,85.20
2022-12-23T14:24:04.297Z,85.11
2022-12-23T14:26:50.039Z,84.91
2022-12-23T14:29:39.885Z,85.23
2022-12-23T14:32:20.064Z,85.28
2022-12-23T14:35:16.792Z,85.08
2022-12-23T14:38:03.721Z,85.18
2022-12-23T14:40:39.547Z,84.87
2022-12-23T14:43:45.040Z,85.17
2022-12-23T14:46:36.188Z,85.28
2022-12-23T14:49:37.055Z,85.18
2022-12-23T14:51:51.046Z,85.44
2022-12-23T14:54:38.698Z,85.50
2022-12-23T14:57:17.724Z,85.23
2022-12-23T14:59:51.598Z,85.27
2022-12-23T15:02:31.153Z,85.63
2022-12-23T15:04:59.269Z,85.42
2022-12-23T15:07:41.925Z,85.21
2022-12-23T15:10:17.272Z,85.47
2022-12-23T15:12:48.179Z,85.39
2022-12-23T15:15:16.497Z,85.35
2022-12-23T15:17:43.353Z,85.20
2022-12-23T15:20:12.258Z,85.17
2022-12-23T15:22:45.132Z,85.35
2022-12-23T15:25:31.872Z,85.65
2022-12-23T15:28:02.159Z,85.62
2022-12-23T15:30:48.146Z,85.45
2022-12-23T15:34:02.226Z,85.36
2022-12-23T15:36:09.960Z,85.58
2022-12-23T15:38:38.850Z,85.35
2022-12-23T15:41:14.686Z,85.25
2022-12-23T15:43:42.239Z,85.16
2022-12-23T15:46:21.977Z,85.39
2022-12-23T15:48:52.129Z,85.38
2022-12-23T15:52:05.726Z,85.17
2022-12-23T15:54:27.008Z,85.17
2022-12-23T15:56:54.699Z,85.41
2022-12-23T15:59:25.377Z,85.26
2022-12-23T16:01:53.037Z,85.13
2022-12-23T16:04:25.449Z,85.24
2022-12-23T16:06:53.354Z,85.16
2022-12-23T16:09:19.926Z,85.04
2022-12-23T16:12:01.932Z,85.42
2022-12-23T16:14:31.101Z,85.18
2022-12-23T16:17:13.135Z,85.19
2022-12-23T16:19:40.804Z,85.40
2022-12-23T16:22:13.325Z,85.28
2022-12-23T16:25:22.428Z,85.38
2022-12-23T16:27:56.176Z,85.54
2022-12-23T16:30:32.778Z,85.45
2022-12-23T16:33:21.301Z,85.53
2022-12-23T16:35:48.131Z,85.76
2022-12-23T16:38:20.673Z,85.90
2022-12-23T16:40:52.488Z,86.06
2022-12-23T16:43:20.539Z,86.03
2022-12-23T16:45:51.485Z,86.25
2022-12-23T16:48:30.822Z,85.27
2022-12-23T16:50:58.184Z,85.48
2022-12-23T16:53:24.891Z,85.82
2022-12-23T16:55:56.815Z,85.98
2022-12-23T16:58:26.973Z,85.45
2022-12-23T17:00:53.676Z,86.08
2022-12-23T17:03:21.052Z,85.87
2022-12-23T17:05:48.501Z,86.61
2022-12-23T17:08:15.621Z,86.78
2022-12-23T17:10:44.774Z,87.09
2022-12-23T17:13:17.786Z,87.77
2022-12-23T17:15:45.139Z,88.03
2022-12-23T17:18:14.001Z,88.36
2022-12-23T17:20:41.909Z,87.46
2022-12-23T17:23:34.421Z,87.53
2022-12-23T17:26:01.058Z,87.70
2022-12-23T17:28:30.973Z,87.26
2022-12-23T17:30:58.902Z,87.08
2022-12-23T17:33:29.519Z,86.68
2022-12-23T17:35:56.248Z,86.92
2022-12-23T17:38:23.327Z,86.78
2022-12-23T17:40:50.659Z,87.16
2022-12-23T17:43:18.578Z,87.41
2022-12-23T17:45:47.136Z,86.68
2022-12-23T17:48:20.182Z,86.92
2022-12-23T17:50:48.149Z,87.06
2022-12-23T17:53:16.846Z,87.12
2022-12-23T17:55:43.779Z,87.31
2022-12-23T17:58:10.536Z,87.50
2022-12-23T18:00:38.721Z,87.28
2022-12-23T18:03:06.800Z,87.14
2022-12-23T18:05:35.031Z,86.99
2022-12-23T18:08:03.017Z,87.46
2022-12-23T18:10:39.270Z,87.01
2022-12-23T18:13:15.670Z,86.84
2022-12-23T18:15:44.339Z,87.10
2022-12-23T18:18:28.101Z,87.05
2022-12-23T18:20:58.318Z,87.03
2022-12-23T18:23:27.549Z,87.27
2022-12-23T18:25:56.035Z,87.48
2022-12-23T18:28:23.018Z,86.99
2022-12-23T18:30:50.691Z,87.22
2022-12-23T18:33:18.018Z,87.09
2022-12-23T18:35:46.716Z,86.97
2022-12-23T18:38:14.037Z,87.53
2022-12-23T18:40:41.215Z,87.34
2022-12-23T18:43:17.774Z,87.40
2022-12-23T18:45:49.230Z,87.31
2022-12-23T18:48:19.201Z,87.38
2022-12-23T18:50:46.945Z,87.68
2022-12-23T18:53:23.783Z,87.56
2022-12-23T18:55:52.640Z,87.78
2022-12-23T18:58:19.696Z,87.71
2022-12-23T19:00:47.082Z,87.46
2022-12-23T19:03:26.466Z,88.15
2022-12-23T19:05:54.107Z,87.84
2022-12-23T19:08:26.753Z,87.91
2022-12-23T19:10:55.104Z,88.00
2022-12-23T19:13:21.840Z,88.15
2022-12-23T19:15:48.913Z,88.11
2022-12-23T19:18:21.383Z,88.18
2022-12-23T19:20:48.779Z,88.24
2022-12-23T19:23:15.716Z,88.10
2022-12-23T19:25:49.136Z,88.25
2022-12-23T19:28:21.989Z,88.21
2022-12-23T19:30:48.942Z,87.94
2022-12-23T19:33:15.732Z,88.25
2022-12-23T19:35:43.205Z,88.45
2022-12-23T19:38:10.783Z,88.90
2022-12-23T19:40:37.387Z,88.49
2022-12-23T19:43:04.486Z,88.58
2022-12-23T19:45:31.080Z,88.08
2022-12-23T19:47:57.846Z,88.49
2022-12-23T19:50:24.476Z,88.13
2022-12-23T19:52:51.871Z,88.41
2022-12-23T19:55:18.575Z,88.30
2022-12-23T19:57:45.207Z,88.09
2022-12-23T20:00:12.524Z,88.52
2022-12-23T20:02:39.256Z,88.44
2022-12-23T20:05:06.230Z,88.38
2022-12-23T20:07:34.688Z,88.12
2022-12-23T20:10:01.273Z,88.46
2022-12-23T20:12:27.992Z,88.81
2022-12-23T20:14:54.614Z,88.83
2022-12-23T20:17:21.154Z,88.88
2022-12-23T20:19:47.659Z,88.47
2022-12-23T20:22:14.449Z,88.74
2022-12-23T20:24:41.167Z,88.64
2022-12-23T20:27:11.379Z,88.89
2022-12-23T20:29:38.507Z,88.82
2022-12-23T20:32:05.330Z,88.52
2022-12-23T20:34:38.369Z,88.37
2022-12-23T20:37:06.216Z,88.54
2022-12-23T20:39:33.041Z,88.04
2022-12-23T20:41:59.807Z,88.39
2022-12-23T20:44:35.823Z,88.17
2022-12-23T20:47:03.922Z,88.29
2022-12-23T20:49:30.655Z,88.00
2022-12-23T20:51:57.791Z,87.90
2022-12-23T20:54:31.644Z,88.11
2022-12-23T20:56:59.607Z,87.78
2022-12-23T20:59:26.286Z,87.78
2022-12-23T21:01:53.027Z,87.67
2022-12-23T21:04:20.641Z,88.09
2022-12-23T21:06:47.308Z,87.59
2022-12-23T21:09:14.998Z,87.56
2022-12-23T21:11:44.271Z,87.12
2022-12-23T21:14:11.055Z,87.43
2022-12-23T21:16:38.474Z,87.69
2022-12-23T21:19:07.278Z,87.68
2022-12-23T21:21:33.957Z,87.61
2022-12-23T21:24:04.695Z,87.38
2022-12-23T21:26:33.943Z,88.12
2022-12-23T21:29:01.458Z,87.58
2022-12-23T21:31:30.039Z,87.47
2022-12-23T21:33:58.161Z,87.17
2022-12-23T21:36:27.425Z,87.04
2022-12-23T21:38:54.180Z,86.70
2022-12-23T21:41:23.843Z,86.65
2022-12-23T21:43:50.519Z,86.46
2022-12-23T21:46:20.165Z,86.18
2022-12-23T21:48:47.911Z,86.51
2022-12-23T21:51:17.852Z,86.04
2022-12-23T21:53:46.663Z,86.18
2022-12-23T21:56:16.297Z,86.49
2022-12-23T21:58:43.878Z,85.99
2022-12-23T22:01:15.078Z,86.07
2022-12-23T22:03:43.405Z,85.78
2022-12-23T22:06:18.720Z,85.95
2022-12-23T22:08:45.681Z,85.83
2022-12-23T22:11:14.680Z,86.06
2022-12-23T22:13:42.723Z,86.06
2022-12-23T22:16:11.615Z,85.96
2022-12-23T22:18:39.305Z,85.64
2022-12-23T22:21:12.710Z,85.88
2022-12-23T22:23:40.148Z,86.05
2022-12-23T22:26:08.464Z,85.74
2022-12-23T22:28:36.796Z,85.60
2022-12-23T22:31:03.511Z,85.81
2022-12-23T22:33:31.645Z,85.73
2022-12-23T22:35:58.508Z,85.76
2022-12-23T22:38:25.083Z,86.03
2022-12-23T22:40:52.404Z,85.76
2022-12-23T22:43:19.730Z,86.15
2022-12-23T22:45:46.711Z,86.66
2022-12-23T22:48:13.435Z,86.53
2022-12-23T22:50:40.125Z,86.35
2022-12-23T22:53:06.719Z,86.93
2022-12-23T22:55:34.749Z,86.56
2022-12-23T22:58:01.295Z,86.38
2022-12-23T23:00:27.817Z,86.70
2022-12-23T23:02:54.382Z,86.93
2022-12-23T23:05:21.459Z,86.46
2022-12-23T23:07:48.087Z,86.69
2022-12-23T23:10:15.705Z,86.29
2022-12-23T23:12:44.224Z,86.28
2022-12-23T23:15:11.126Z,86.54
2022-12-23T23:17:37.805Z,86.22
2022-12-23T23:20:04.717Z,86.48
2022-12-23T23:22:31.258Z,86.59
2022-12-23T23:24:57.802Z,86.77
2022-12-23T23:27:24.418Z,86.84
2022-12-23T23:29:50.970Z,86.61
2022-12-23T23:32:17.560Z,86.86
2022-12-23T23:34:44.285Z,86.82
2022-12-23T23:37:10.774Z,86.97
2022-12-23T23:39:49.333Z,86.56
2022-12-23T23:42:17.853Z,86.39
2022-12-23T23:44:44.409Z,86.12
2022-12-23T23:47:10.953Z,86.34
2022-12-23T23:49:37.486Z,86.26
2022-12-23T23:52:04.264Z,86.10
2022-12-23T23:54:30.817Z,85.86
2022-12-23T23:56:57.298Z,86.26
2022-12-23T23:59:23.850Z,86.10
